Avalon, Wisconsin
Current Conditions -  °F | °C
As of 4:45 PM on Wednesday 22 Oct 2014 (Local Time) from KJVL Reporting Station
Clear Clear  
Wind Chill: 16°   Ceiling: Unl
Heat Index: 16°   Visibility: 10mi
Dew Point:   Wind: 8mph
Humidity: 39%   Direction: 160°SSE
Pressure: 30.24"   Gusts: NA
Location:  42.63°N, 88.87°W
Report Text: KJVL 222145Z 16007KT 10SM SKC 16/02 A3024
Loading
Personal Weather Stations






























Interactive Weather Map
Tropical Storm Tracking
New forecast layout! Learn more

10-Day Weather Forecast

Advertisements
Track Severe Weather on mobile